Maitland, Missouri
Current Conditions -  °F | °C
As of 6:53 AM on Friday 24 Oct 2014 (Local Time) from KFNB Reporting Station
Haze Haze  
Wind Chill: 59°   Ceiling: Unl
Heat Index: 59°   Visibility: 5mi
Dew Point: 57°   Wind: 8mph
Humidity: 93%   Direction: 180°S
Pressure: 30"   Gusts: NA
Location:  40.2°N, 95.07°W
Report Text: KFNB 241153Z AUTO 18007KT 5SM BR CLR 15/14 A3000 RMK AO2 SLP154 T01500139 10156 20144 58005
Loading
Personal Weather Stations






























Interactive Weather Map
Tropical Storm Tracking
New forecast layout! Learn more

10-Day Weather Forecast

Advertisements
Track Severe Weather on mobile